Nearby METAR Reports

 

KSJC - San Jose, California, USA
Distance from station: NE 9mi, 14km
Updated: Sat, 08-May-2021 9:53pm PDT
Clear
Clear
 Wind from NNW
Wind: NNW 8 mph , 13 km/h
Temperature: 64°F , 18°C
Dew Point: 46°F , 8°C
Humidity: 52%
Barometer: 29.97 inHg , 1014.9 hPa
Clouds: Clear
Visibility: 10 miles , 16 km
2021/05/09 04:53 KSJC 090453Z 33007KT 10SM CLR 18/08 A2997 RMK AO2 SLP147 T01780078
KNUQ - Moffett Nas/Mtn, California, USA
Distance from station: N 9mi, 14km
Updated: Tue, 13-Apr-2021 3:40pm PDT
NOT Current

 
2021/04/13 22:40 KNUQ 132240Z AUTO RMK AO2 PNO PWINO TSNO
KPAO - Palo Alto, California, USA
Distance from station: NNW 14mi, 23km
Updated: Sat, 08-May-2021 8:47pm PDT
NOT Current
Clear
Clear
 Wind from WNW
Wind: WNW 9 mph , 15 km/h
Temperature: 64°F , 18°C
Dew Point: 48°F , 9°C
Humidity: 56%
Barometer: 29.96 inHg , 1014.6 hPa
Clouds: Clear
Visibility: 10 miles , 16 km
2021/05/09 03:47 KPAO 090347Z 30008KT 10SM SKC 18/09 A2996 RMK LAST
 
KRHV - San Jose/Reid, California, USA
Distance from station: ENE 12mi, 19km
Updated: Sat, 08-May-2021 9:47pm PDT
Clear
Clear
 Wind from NW
Wind: NW 7 mph , 11 km/h
Temperature: 66°F , 19°C
Dew Point: 45°F , 7°C
Humidity: 46%
Barometer: 29.97 inHg , 1014.9 hPa
Clouds: Clear
Visibility: 10 miles , 16 km
2021/05/09 04:47 KRHV 090447Z 31006KT 10SM SKC 19/07 A2997 RMK LAST
KOAK - Oakland, California, USA
Distance from station: NNW 31mi, 50km
Updated: Sat, 08-May-2021 9:53pm PDT
Few Clouds
Few Clouds
 Wind from WNW
Wind: WNW 12 mph , 19 km/h
Temperature: 63°F , 17°C
Dew Point: 48°F , 9°C
Humidity: 59%
Barometer: 29.97 inHg , 1014.9 hPa
Clouds: Few Clouds
Visibility: 10 miles , 16 km
Cloud details: Few Clouds 18000 ft
2021/05/09 04:53 KOAK 090453Z 29010KT 10SM FEW180 17/09 A2997 RMK AO2 SLP148 T01670089
KSQL - San Carlos Airpo, California, USA
Distance from station: NW 21mi, 34km
Updated: Sat, 08-May-2021 9:55pm PDT
Clear
Clear
 Wind from calm
Wind: Calm
Temperature: 64°F , 18°C
Dew Point: 41°F , 5°C
Humidity: 43%
Barometer: 29.98 inHg , 1015.2 hPa
Clouds: Clear
Visibility: 10 miles , 16 km
2021/05/09 04:55 KSQL 090455Z AUTO 00000KT 10SM CLR 18/05 A2998 RMK AO2
 
KSFO - San Francisco, California, USA
Distance from station: NW 30mi, 49km
Updated: Sat, 08-May-2021 9:56pm PDT
Clear
Clear
 Wind from WNW
Wind: WNW 16 mph , 26 km/h
Temperature: 61°F , 16°C
Dew Point: 45°F , 7°C
Humidity: 55%
Barometer: 29.97 inHg , 1014.9 hPa
Clouds: Clear
Visibility: 10 miles , 16 km
2021/05/09 04:56 KSFO 090456Z 29014KT 10SM CLR 16/07 A2997 RMK AO2 SLP149 T01560067
KE16 - San Martin, California, USA
Distance from station: ESE 27mi, 43km
Updated: Sat, 08-May-2021 9:55pm PDT
Clear
Clear
 Wind from NW
Wind: NW 7 mph , 11 km/h
Temperature: 68°F , 20°C
Dew Point: 34°F , 1°C
Humidity: 28%
Barometer: 29.98 inHg , 1015.2 hPa
Clouds: Clear
Visibility: 10 miles , 16 km
2021/05/09 04:55 KE16 090455Z AUTO 32006KT 10SM CLR 20/01 A2998 RMK AO2 PWINO PNO
KWVI - Watsonville, California, USA
Distance from station: SSE 27mi, 44km
Updated: Sat, 08-May-2021 9:53pm PDT
Clear
Clear
 Wind from SSE
Wind: SSE 5 mph , 7 km/h
Temperature: 54°F , 12°C
Dew Point: 46°F , 8°C
Humidity: 77%
Barometer: 29.99 inHg , 1015.6 hPa
Clouds: Clear
Visibility: 9 miles , 14 km
2021/05/09 04:53 KWVI 090453Z AUTO 15004KT 9SM CLR 12/08 A2999 RMK AO2 SLP156 T01170078
 
KHAF - Half Moon Bay, California, USA
Distance from station: WNW 31mi, 50km
Updated: Sat, 08-May-2021 9:55pm PDT
Haze, Clear
Haze, Clear
 Wind from NNW
Wind: NNW 9 mph , 15 km/h
Temperature: 54°F , 12°C
Dew Point: 45°F , 7°C
Humidity: 72%
Barometer: 30.01 inHg , 1016.3 hPa
Summary: Haze
Clouds: Clear
Visibility: 4 miles , 6 km
2021/05/09 04:55 KHAF 090455Z AUTO 34008KT 4SM HZ CLR 12/07 A3001 RMK AO2
KHWD - Hayward, California, USA
Distance from station: N 28mi, 44km
Updated: Sat, 08-May-2021 9:54pm PDT
Clear
Clear
 Wind from W
Wind: W 6 mph , 9 km/h
Temperature: 61°F , 16°C
Dew Point: 50°F , 10°C
Humidity: 68%
Barometer: 29.97 inHg , 1014.9 hPa
Clouds: Clear
Visibility: 10 miles , 16 km
2021/05/09 04:54 KHWD 090454Z 27005KT 10SM CLR 16/10 A2997 RMK AO2 SLP156 T01610100
KLVK - Livermore, California, USA
Distance from station: NNE 31mi, 51km
Updated: Sat, 08-May-2021 9:53pm PDT
Clear
Clear
 Wind from calm
Wind: Calm
Temperature: 70°F , 21°C
Dew Point: 39°F , 4°C
Humidity: 33%
Barometer: 29.95 inHg , 1014.2 hPa
Clouds: Clear
Visibility: 10 miles , 16 km
2021/05/09 04:53 KLVK 090453Z AUTO 00000KT 10SM CLR 21/04 A2995 RMK AO2 SLP139 T02110039